createdAt,value
2022-08-10T00:01:52.089Z,32.81
2022-08-10T00:04:22.645Z,32.57
2022-08-10T00:06:52.825Z,32.29
2022-08-10T00:09:21.310Z,32.97
2022-08-10T00:11:48.837Z,33.13
2022-08-10T00:14:16.580Z,33.16
2022-08-10T00:16:44.386Z,32.94
2022-08-10T00:19:12.037Z,33.72
2022-08-10T00:21:40.098Z,33.25
2022-08-10T00:24:08.155Z,32.64
2022-08-10T00:27:51.829Z,33.00
2022-08-10T00:29:23.570Z,33.08
2022-08-10T00:31:57.708Z,34.61
2022-08-10T00:34:28.284Z,33.58
2022-08-10T00:36:56.236Z,34.78
2022-08-10T00:39:23.981Z,35.03
2022-08-10T00:42:06.741Z,35.50
2022-08-10T00:44:46.480Z,34.04
2022-08-10T00:47:35.943Z,33.79
2022-08-10T00:50:02.757Z,35.05
2022-08-10T00:52:31.340Z,35.01
2022-08-10T00:54:59.137Z,34.92
2022-08-10T00:57:26.975Z,34.85
2022-08-10T00:59:57.992Z,35.29
2022-08-10T01:02:29.552Z,35.34
2022-08-10T01:05:02.110Z,35.34
2022-08-10T01:07:45.259Z,35.54
2022-08-10T01:10:18.973Z,35.56
2022-08-10T01:13:21.295Z,35.14
2022-08-10T01:15:59.490Z,36.21
2022-08-10T01:19:02.185Z,36.35
2022-08-10T01:22:03.590Z,36.39
2022-08-10T01:24:55.458Z,35.96
2022-08-10T01:27:37.775Z,36.16
2022-08-10T01:30:07.375Z,37.79
2022-08-10T01:32:43.341Z,37.81
2022-08-10T01:35:29.023Z,38.63
2022-08-10T01:38:05.797Z,38.48
2022-08-10T01:40:36.076Z,37.92
2022-08-10T01:43:08.058Z,37.93
2022-08-10T01:45:44.752Z,37.64
2022-08-10T01:48:44.465Z,38.60
2022-08-10T01:51:19.397Z,38.28
2022-08-10T01:53:53.622Z,37.77
2022-08-10T01:56:23.795Z,38.54
2022-08-10T01:58:56.138Z,39.37
2022-08-10T02:01:26.496Z,38.39
2022-08-10T02:04:01.602Z,38.07
2022-08-10T02:06:37.639Z,37.88
2022-08-10T02:09:07.878Z,37.81
2022-08-10T02:12:05.276Z,37.43
2022-08-10T02:14:34.118Z,37.11
2022-08-10T02:17:58.125Z,37.36
2022-08-10T02:20:02.343Z,36.97
2022-08-10T02:22:36.194Z,37.72
2022-08-10T02:25:07.596Z,37.14
2022-08-10T02:27:36.145Z,36.49
2022-08-10T02:30:05.682Z,37.78
2022-08-10T02:32:38.305Z,37.19
2022-08-10T02:35:08.747Z,36.63
2022-08-10T02:37:47.911Z,36.60
2022-08-10T02:45:06.354Z,37.24
2022-08-10T02:45:17.810Z,37.02
2022-08-10T02:46:08.784Z,36.28
2022-08-10T02:48:44.738Z,36.67
2022-08-10T02:51:17.585Z,36.28
2022-08-10T02:53:55.866Z,35.52
2022-08-10T02:56:46.730Z,35.72
2022-08-10T02:59:17.601Z,35.33
2022-08-10T03:01:48.188Z,35.21
2022-08-10T03:04:56.068Z,35.29
2022-08-10T03:07:12.326Z,35.24
2022-08-10T03:09:41.221Z,35.26
2022-08-10T03:12:35.465Z,34.84
2022-08-10T03:15:00.005Z,35.06
2022-08-10T03:17:29.084Z,36.19
2022-08-10T03:20:33.268Z,36.29
2022-08-10T03:22:46.591Z,36.37
2022-08-10T03:25:15.163Z,35.97
2022-08-10T03:27:42.909Z,36.32
2022-08-10T03:30:31.706Z,35.58
2022-08-10T03:32:59.270Z,35.82
2022-08-10T03:35:27.857Z,35.78
2022-08-10T03:37:59.094Z,36.32
2022-08-10T03:40:45.080Z,36.27
2022-08-10T03:43:18.475Z,36.04
2022-08-10T03:45:55.390Z,36.89
2022-08-10T03:48:44.725Z,37.92
2022-08-10T03:51:13.349Z,37.27
2022-08-10T03:54:02.893Z,37.70
2022-08-10T03:56:32.190Z,37.29
2022-08-10T03:59:00.745Z,37.57
2022-08-10T04:02:44.573Z,36.81
2022-08-10T04:04:22.911Z,36.94
2022-08-10T04:06:54.901Z,36.59
2022-08-10T04:09:29.686Z,36.16
2022-08-10T04:12:15.551Z,36.48
2022-08-10T04:14:50.966Z,36.59
2022-08-10T04:18:04.864Z,36.76
2022-08-10T04:20:18.318Z,36.66
2022-08-10T04:22:49.148Z,35.60
2022-08-10T04:25:17.854Z,36.38
2022-08-10T04:27:45.556Z,36.03
2022-08-10T04:30:13.262Z,36.08
2022-08-10T04:32:42.156Z,35.31
2022-08-10T04:35:10.863Z,36.00
2022-08-10T04:37:46.801Z,35.94
2022-08-10T04:40:29.488Z,36.03
2022-08-10T04:43:12.378Z,36.40
2022-08-10T04:45:47.426Z,36.31
2022-08-10T04:48:40.102Z,36.81
2022-08-10T04:51:18.114Z,36.06
2022-08-10T04:54:04.982Z,36.17
2022-08-10T04:56:36.478Z,36.07
2022-08-10T04:59:05.853Z,35.66
2022-08-10T05:02:22.434Z,35.26
2022-08-10T05:04:37.404Z,34.58
2022-08-10T05:07:07.327Z,32.91
2022-08-10T05:10:01.597Z,31.31
2022-08-10T05:12:23.185Z,31.15
2022-08-10T05:14:52.173Z,31.98
2022-08-10T05:17:20.604Z,32.48
2022-08-10T05:20:04.283Z,33.26
2022-08-10T05:22:35.933Z,34.19
2022-08-10T05:25:04.788Z,34.76
2022-08-10T05:27:32.341Z,35.22
2022-08-10T05:30:02.019Z,35.54
2022-08-10T05:32:55.219Z,36.26
2022-08-10T05:35:21.218Z,35.68
2022-08-10T05:38:11.979Z,36.23
2022-08-10T05:40:39.675Z,35.25
2022-08-10T05:43:07.576Z,35.06
2022-08-10T05:46:19.509Z,35.62
2022-08-10T05:48:53.835Z,35.75
2022-08-10T05:51:11.085Z,35.27
2022-08-10T05:54:02.575Z,35.11
2022-08-10T05:56:27.050Z,34.71
2022-08-10T05:59:16.005Z,35.18
2022-08-10T06:02:33.434Z,34.88
2022-08-10T06:04:54.185Z,34.71
2022-08-10T06:07:22.221Z,34.79
2022-08-10T06:09:59.257Z,35.57
2022-08-10T06:12:37.555Z,34.79
2022-08-10T06:15:21.448Z,34.42
2022-08-10T06:18:01.651Z,34.84
2022-08-10T06:20:35.852Z,34.86
2022-08-10T06:23:04.752Z,33.84
2022-08-10T06:26:11.253Z,33.99
2022-08-10T06:28:22.404Z,33.29
2022-08-10T06:30:51.170Z,33.96
2022-08-10T06:33:20.190Z,32.79
2022-08-10T06:35:52.569Z,33.65
2022-08-10T06:38:21.795Z,33.33
2022-08-10T06:40:49.979Z,33.90
2022-08-10T06:43:19.088Z,33.88
2022-08-10T06:46:07.182Z,33.79
2022-08-10T06:48:41.786Z,33.34
2022-08-10T06:51:14.772Z,33.84
2022-08-10T06:53:54.326Z,33.20
2022-08-10T06:56:36.668Z,33.56
2022-08-10T06:59:32.562Z,33.70
2022-08-10T07:02:05.861Z,33.69
2022-08-10T07:04:46.593Z,32.82
2022-08-10T07:07:19.533Z,32.89
2022-08-10T07:09:48.002Z,32.68
2022-08-10T07:12:15.949Z,32.92
2022-08-10T07:14:44.898Z,33.10
2022-08-10T07:17:15.545Z,33.25
2022-08-10T07:19:49.977Z,33.67
2022-08-10T07:23:05.864Z,34.44
2022-08-10T07:25:11.512Z,34.01
2022-08-10T07:27:58.947Z,34.09
2022-08-10T07:30:30.813Z,34.44
2022-08-10T07:33:00.616Z,33.74
2022-08-10T07:35:34.760Z,33.34
2022-08-10T07:38:06.603Z,32.81
2022-08-10T07:40:35.129Z,32.48
2022-08-10T07:43:03.337Z,32.53
2022-08-10T07:45:33.757Z,32.50
2022-08-10T07:48:07.529Z,32.36
2022-08-10T07:50:38.145Z,32.32
2022-08-10T07:53:09.120Z,31.94
2022-08-10T07:56:05.507Z,33.60
2022-08-10T07:58:37.136Z,33.08
2022-08-10T08:01:05.122Z,31.94
2022-08-10T08:03:33.983Z,31.24
2022-08-10T08:06:05.290Z,31.70
2022-08-10T08:08:34.648Z,31.70
2022-08-10T08:11:03.297Z,30.70
2022-08-10T08:13:31.202Z,31.33
2022-08-10T08:16:20.482Z,32.46
2022-08-10T08:19:23.552Z,30.86
2022-08-10T08:24:05.429Z,31.02
2022-08-10T08:24:32.963Z,30.21
2022-08-10T08:27:05.309Z,29.64
2022-08-10T08:29:37.646Z,29.78
2022-08-10T08:32:06.563Z,29.72
2022-08-10T08:34:37.665Z,29.10
2022-08-10T08:37:07.963Z,30.04
2022-08-10T08:39:37.172Z,29.89
2022-08-10T08:42:38.603Z,28.19
2022-08-10T08:45:30.995Z,27.86
2022-08-10T08:48:09.328Z,28.69
2022-08-10T08:50:42.726Z,28.82
2022-08-10T08:54:02.719Z,29.42
2022-08-10T08:56:46.930Z,28.94
2022-08-10T08:59:55.330Z,29.21
2022-08-10T09:02:59.953Z,27.86
2022-08-10T09:05:58.483Z,28.40
2022-08-10T09:08:51.838Z,28.27
2022-08-10T09:11:19.647Z,29.13
2022-08-10T09:14:26.345Z,28.21
2022-08-10T09:17:10.403Z,28.48
2022-08-10T09:19:49.888Z,27.97
2022-08-10T09:22:36.329Z,26.88
2022-08-10T09:25:16.137Z,27.14
2022-08-10T09:27:49.361Z,28.71
2022-08-10T09:30:31.728Z,27.54
2022-08-10T09:36:24.241Z,26.48
2022-08-10T09:36:33.317Z,25.67
2022-08-10T09:40:56.285Z,26.46
2022-08-10T09:43:02.206Z,26.83
2022-08-10T09:45:48.605Z,25.38
2022-08-10T09:48:32.513Z,25.46
2022-08-10T09:54:17.811Z,24.91
2022-08-10T09:56:50.086Z,24.55
2022-08-10T10:00:00.095Z,24.60
2022-08-10T10:02:27.542Z,24.22
2022-08-10T10:05:18.203Z,23.38
2022-08-10T10:07:52.702Z,24.63
2022-08-10T10:10:25.132Z,23.79
2022-08-10T10:13:04.039Z,22.94
2022-08-10T10:15:49.925Z,23.06
2022-08-10T10:18:39.784Z,23.14
2022-08-10T10:21:23.920Z,23.33
2022-08-10T10:24:22.833Z,22.72
2022-08-10T10:26:57.955Z,22.59
2022-08-10T10:29:57.363Z,23.55
2022-08-10T10:32:40.554Z,22.81
2022-08-10T10:35:29.568Z,22.31
2022-08-10T10:38:01.980Z,21.83
2022-08-10T10:40:38.332Z,22.74
2022-08-10T10:43:16.368Z,22.67
2022-08-10T10:46:23.204Z,22.54
2022-08-10T10:49:22.078Z,22.83
2022-08-10T10:52:05.348Z,21.66
2022-08-10T10:54:56.025Z,21.07
2022-08-10T10:58:00.093Z,21.95
2022-08-10T11:00:55.023Z,21.64
2022-08-10T11:03:47.189Z,22.20
2022-08-10T11:06:45.526Z,21.00
2022-08-10T11:10:04.763Z,21.75
2022-08-10T11:12:26.215Z,20.65
2022-08-10T11:15:25.229Z,21.32
2022-08-10T11:17:58.348Z,21.61
2022-08-10T11:20:48.789Z,22.05
2022-08-10T11:23:24.700Z,21.76
2022-08-10T11:25:59.690Z,22.61
2022-08-10T11:29:10.674Z,22.16
2022-08-10T11:31:43.501Z,22.55
2022-08-10T11:34:48.607Z,22.69
2022-08-10T11:37:29.972Z,22.97
2022-08-10T11:40:29.115Z,22.44
2022-08-10T11:43:14.259Z,22.67
2022-08-10T11:45:52.086Z,22.64
2022-08-10T11:48:53.393Z,19.89
2022-08-10T11:51:34.145Z,20.36
2022-08-10T11:54:10.533Z,20.63
2022-08-10T11:56:50.161Z,20.63
2022-08-10T11:59:38.824Z,21.10
2022-08-10T12:02:07.285Z,21.08
2022-08-10T12:04:36.044Z,20.40
2022-08-10T12:10:02.350Z,19.76
2022-08-10T12:10:09.981Z,20.01
2022-08-10T12:12:51.341Z,19.86
2022-08-10T12:16:05.157Z,19.71
2022-08-10T12:18:48.062Z,19.78
2022-08-10T12:21:22.925Z,19.89
2022-08-10T12:24:02.449Z,20.05
2022-08-10T12:26:46.584Z,19.25
2022-08-10T12:29:25.528Z,18.43
2022-08-10T12:32:12.478Z,19.33
2022-08-10T12:35:01.828Z,20.20
2022-08-10T12:37:51.287Z,20.32
2022-08-10T12:40:42.789Z,20.41
2022-08-10T12:44:06.914Z,20.04
2022-08-10T12:46:36.156Z,20.06
2022-08-10T12:49:31.482Z,19.13
2022-08-10T12:52:20.389Z,18.40
2022-08-10T12:54:50.436Z,19.12
2022-08-10T12:57:21.537Z,20.03
2022-08-10T12:59:51.833Z,18.75
2022-08-10T13:02:28.656Z,18.88
2022-08-10T13:05:04.575Z,18.86
2022-08-10T13:08:24.407Z,19.98
2022-08-10T13:10:23.154Z,19.08
2022-08-10T13:12:52.071Z,18.66
2022-08-10T13:15:48.590Z,18.91
2022-08-10T13:18:18.106Z,18.43
2022-08-10T13:20:51.841Z,18.79
2022-08-10T13:23:24.356Z,18.87
2022-08-10T13:25:52.794Z,19.38
2022-08-10T13:28:40.150Z,19.87
2022-08-10T13:32:04.037Z,19.91
2022-08-10T13:34:39.210Z,20.26
2022-08-10T13:37:10.553Z,19.88
2022-08-10T13:39:58.343Z,20.33
2022-08-10T13:42:32.236Z,19.69
2022-08-10T13:45:06.270Z,19.72
2022-08-10T13:47:48.086Z,19.51
2022-08-10T13:50:33.553Z,19.45
2022-08-10T13:53:14.720Z,18.95
2022-08-10T13:55:57.403Z,19.17
2022-08-10T13:58:34.084Z,19.07
2022-08-10T14:01:12.500Z,19.03
2022-08-10T14:03:42.787Z,20.13
2022-08-10T14:06:15.796Z,19.33
2022-08-10T14:08:49.323Z,19.43
2022-08-10T14:11:18.796Z,19.91
2022-08-10T14:13:58.409Z,20.15
2022-08-10T14:16:26.965Z,20.26
2022-08-10T14:19:02.124Z,19.99
2022-08-10T14:21:29.831Z,19.93
2022-08-10T14:23:58.244Z,19.74
2022-08-10T14:26:30.689Z,19.00
2022-08-10T14:29:07.037Z,19.53
2022-08-10T14:31:37.296Z,19.33
2022-08-10T14:34:09.032Z,19.76
2022-08-10T14:36:58.474Z,18.27
2022-08-10T14:39:34.799Z,19.46
2022-08-10T14:42:22.622Z,19.18
2022-08-10T14:44:57.332Z,19.45
2022-08-10T14:47:59.287Z,19.27
2022-08-10T14:50:32.430Z,19.64
2022-08-10T14:53:27.008Z,20.29
2022-08-10T14:56:01.069Z,19.52
2022-08-10T14:58:38.427Z,19.42
2022-08-10T15:01:08.216Z,18.58
2022-08-10T15:04:01.522Z,19.01
2022-08-10T15:06:30.682Z,18.65
2022-08-10T15:09:20.432Z,18.70
2022-08-10T15:12:13.241Z,19.16
2022-08-10T15:14:47.388Z,19.31
2022-08-10T15:17:30.066Z,18.59
2022-08-10T15:20:29.743Z,19.25
2022-08-10T15:23:05.676Z,19.63
2022-08-10T15:25:36.480Z,19.48
2022-08-10T15:28:13.170Z,19.54
2022-08-10T15:30:56.842Z,19.22
2022-08-10T15:34:05.221Z,18.94
2022-08-10T15:37:35.905Z,19.48
2022-08-10T15:40:24.763Z,19.50
2022-08-10T15:42:59.480Z,19.02
2022-08-10T15:45:27.769Z,19.04
2022-08-10T15:48:03.199Z,19.44
2022-08-10T15:50:39.943Z,20.37
2022-08-10T15:53:15.756Z,20.19
2022-08-10T15:55:51.597Z,19.00
2022-08-10T15:58:37.626Z,19.11
2022-08-10T16:02:12.528Z,19.57
2022-08-10T16:04:09.071Z,20.53
2022-08-10T16:06:48.819Z,19.68
2022-08-10T16:10:23.921Z,20.24
2022-08-10T16:12:29.583Z,19.91
2022-08-10T16:15:04.435Z,20.66
2022-08-10T16:17:54.916Z,20.92
2022-08-10T16:20:31.060Z,21.62
2022-08-10T16:23:12.588Z,20.77
2022-08-10T16:25:52.127Z,20.50
2022-08-10T16:28:35.134Z,20.64
2022-08-10T16:31:05.801Z,20.65
2022-08-10T16:33:53.344Z,21.04
2022-08-10T16:36:31.227Z,21.01
2022-08-10T16:38:59.802Z,21.53
2022-08-10T16:42:03.715Z,21.11
2022-08-10T16:44:18.454Z,21.18
2022-08-10T16:46:47.136Z,21.29
2022-08-10T16:49:16.862Z,20.88
2022-08-10T16:51:48.482Z,20.93
2022-08-10T16:54:27.126Z,20.54
2022-08-10T16:57:01.514Z,21.04
2022-08-10T16:59:32.922Z,20.57
2022-08-10T17:02:01.350Z,21.13
2022-08-10T17:04:30.483Z,21.55
2022-08-10T17:07:00.095Z,21.45
2022-08-10T17:09:33.234Z,21.10
2022-08-10T17:12:10.732Z,20.91
2022-08-10T17:14:40.169Z,21.01
2022-08-10T17:17:12.417Z,21.09
2022-08-10T17:19:42.972Z,21.79
2022-08-10T17:22:19.563Z,21.85
2022-08-10T17:24:52.777Z,22.12
2022-08-10T17:28:05.182Z,21.96
2022-08-10T17:30:17.945Z,21.84
2022-08-10T17:33:20.335Z,21.55
2022-08-10T17:35:49.774Z,21.62
2022-08-10T17:38:26.246Z,21.27
2022-08-10T17:41:10.919Z,21.19
2022-08-10T17:43:46.664Z,21.37
2022-08-10T17:46:29.753Z,21.22
2022-08-10T17:48:59.784Z,21.42
2022-08-10T17:51:30.843Z,21.43
2022-08-10T17:54:00.826Z,21.35
2022-08-10T17:56:31.970Z,21.57
2022-08-10T17:59:02.855Z,21.61
2022-08-10T18:01:41.842Z,21.72
2022-08-10T18:04:22.681Z,21.64
2022-08-10T18:06:55.267Z,22.05
2022-08-10T18:09:42.393Z,22.15
2022-08-10T18:12:18.523Z,22.50
2022-08-10T18:14:48.787Z,22.64
2022-08-10T18:17:23.707Z,22.56
2022-08-10T18:19:54.745Z,22.41
2022-08-10T18:22:24.266Z,22.76
2022-08-10T18:24:53.299Z,22.72
2022-08-10T18:27:21.504Z,22.87
2022-08-10T18:29:51.618Z,22.91
2022-08-10T18:32:23.125Z,22.83
2022-08-10T18:34:54.013Z,22.89
2022-08-10T18:37:23.803Z,23.31
2022-08-10T18:39:55.477Z,23.10
2022-08-10T18:42:31.621Z,22.92
2022-08-10T18:45:06.621Z,22.91
2022-08-10T18:47:40.504Z,22.91
2022-08-10T18:50:36.054Z,23.21
2022-08-10T18:53:31.238Z,23.53
2022-08-10T18:56:11.911Z,23.34
2022-08-10T18:59:06.504Z,23.52
2022-08-10T19:02:11.987Z,23.53
2022-08-10T19:05:01.318Z,23.62
2022-08-10T19:07:49.552Z,23.70
2022-08-10T19:10:34.545Z,24.17
2022-08-10T19:13:04.793Z,24.26
2022-08-10T19:15:42.564Z,24.60
2022-08-10T19:18:23.882Z,24.39
2022-08-10T19:20:58.009Z,24.48
2022-08-10T19:23:38.360Z,24.65
2022-08-10T19:26:43.969Z,24.89
2022-08-10T19:30:12.138Z,25.53
2022-08-10T19:32:43.593Z,25.26
2022-08-10T19:35:19.170Z,25.20
2022-08-10T19:38:16.690Z,25.39
2022-08-10T19:41:09.993Z,25.50
2022-08-10T19:44:01.618Z,25.98
2022-08-10T19:47:08.496Z,26.60
2022-08-10T19:49:41.964Z,26.39
2022-08-10T19:52:46.714Z,26.49
2022-08-10T19:55:41.197Z,26.72
2022-08-10T19:58:29.576Z,26.33
2022-08-10T20:01:00.270Z,26.92
2022-08-10T20:03:46.648Z,27.49
2022-08-10T20:06:28.338Z,27.71
2022-08-10T20:09:04.433Z,27.72
2022-08-10T20:12:08.332Z,27.98
2022-08-10T20:15:07.086Z,27.77
2022-08-10T20:18:14.091Z,27.40
2022-08-10T20:20:48.397Z,27.59
2022-08-10T20:23:19.069Z,27.22
2022-08-10T20:25:57.121Z,27.28
2022-08-10T20:28:34.739Z,27.49
2022-08-10T20:31:17.975Z,27.45
2022-08-10T20:34:01.673Z,27.60
2022-08-10T20:36:36.434Z,26.75
2022-08-10T20:39:06.835Z,27.07
2022-08-10T20:42:11.298Z,26.79
2022-08-10T20:44:53.697Z,26.91
2022-08-10T20:47:54.849Z,26.85
2022-08-10T20:50:30.768Z,26.64
2022-08-10T20:53:02.258Z,26.84
2022-08-10T20:55:53.379Z,26.66
2022-08-10T20:58:43.623Z,26.47
2022-08-10T21:01:11.114Z,26.32
2022-08-10T21:04:02.894Z,26.93
2022-08-10T21:06:52.489Z,27.05
2022-08-10T21:09:23.318Z,27.04
2022-08-10T21:11:59.893Z,27.26
2022-08-10T21:14:39.690Z,27.69
2022-08-10T21:17:31.743Z,27.48
2022-08-10T21:20:18.057Z,27.67
2022-08-10T21:22:56.716Z,27.37
2022-08-10T21:25:30.073Z,27.93
2022-08-10T21:28:52.003Z,29.12
2022-08-10T21:31:37.436Z,28.96
2022-08-10T21:34:40.473Z,28.94
2022-08-10T21:37:26.198Z,29.29
2022-08-10T21:40:36.690Z,29.69
2022-08-10T21:43:44.369Z,29.44
2022-08-10T21:47:01.754Z,29.26
2022-08-10T21:50:14.796Z,29.99
2022-08-10T21:53:08.801Z,29.67
2022-08-10T21:56:04.525Z,29.82
2022-08-10T21:59:00.366Z,29.79
2022-08-10T22:01:54.559Z,31.16
2022-08-10T22:04:45.470Z,30.89
2022-08-10T22:07:37.161Z,30.56
2022-08-10T22:10:26.010Z,30.34
2022-08-10T22:13:13.975Z,30.45
2022-08-10T22:16:10.247Z,30.30
2022-08-10T22:19:03.995Z,30.81
2022-08-10T22:21:59.797Z,31.16
2022-08-10T22:24:51.316Z,30.83
2022-08-10T22:27:52.967Z,30.73
2022-08-10T22:30:43.053Z,30.60
2022-08-10T22:33:52.820Z,31.74
2022-08-10T22:36:50.979Z,31.25
2022-08-10T22:40:11.900Z,31.42
2022-08-10T22:43:10.943Z,32.07
2022-08-10T22:46:11.802Z,32.22
2022-08-10T22:49:00.004Z,32.01
2022-08-10T22:51:38.425Z,32.32
2022-08-10T22:54:32.305Z,32.83
2022-08-10T22:57:20.228Z,32.80
2022-08-10T22:59:49.183Z,32.49
2022-08-10T23:02:30.263Z,32.11
2022-08-10T23:05:10.951Z,32.14
2022-08-10T23:07:47.455Z,32.78
2022-08-10T23:10:17.071Z,31.82
2022-08-10T23:12:58.304Z,31.31
2022-08-10T23:15:47.450Z,31.36
2022-08-10T23:18:37.813Z,31.65
2022-08-10T23:21:06.653Z,31.65
2022-08-10T23:23:36.773Z,32.57
2022-08-10T23:26:06.218Z,32.50
2022-08-10T23:28:38.729Z,31.48
2022-08-10T23:32:01.036Z,31.01
2022-08-10T23:34:11.620Z,31.03
2022-08-10T23:36:40.193Z,30.95
2022-08-10T23:39:24.260Z,30.54
2022-08-10T23:42:01.794Z,30.45
2022-08-10T23:44:35.127Z,30.47
2022-08-10T23:47:03.956Z,30.32
2022-08-10T23:49:35.060Z,30.27
2022-08-10T23:52:11.452Z,30.49
2022-08-10T23:54:45.241Z,30.33
2022-08-10T23:57:17.145Z,30.65
2022-08-10T23:59:50.456Z,31.19
